地図

経路データ

SID SEASON NUMBER BASIN SUBBASIN NAME ISO_TIME NATURE LAT LON WMO_WIND WMO_PRES WMO_AGENCY TRACK_TYPE DIST2LAND LANDFALL IFLAG USA_AGENCY USA_ATCF_ID USA_LAT USA_LON USA_RECORD USA_STATUS USA_WIND USA_PRES USA_SSHS USA_R34_NE USA_R34_SE USA_R34_SW USA_R34_NW USA_R50_NE USA_R50_SE USA_R50_SW USA_R50_NW USA_R64_NE USA_R64_SE USA_R64_SW USA_R64_NW USA_POCI USA_ROCI USA_RMW USA_EYE TOKYO_LAT TOKYO_LON TOKYO_GRADE TOKYO_WIND TOKYO_PRES TOKYO_R50_DIR TOKYO_R50_LONG TOKYO_R50_SHORT TOKYO_R30_DIR TOKYO_R30_LONG TOKYO_R30_SHORT TOKYO_LAND CMA_LAT CMA_LON CMA_CAT CMA_WIND CMA_PRES HKO_LAT HKO_LON HKO_CAT HKO_WIND HKO_PRES NEWDELHI_LAT NEWDELHI_LON NEWDELHI_GRADE NEWDELHI_WIND NEWDELHI_PRES NEWDELHI_CI NEWDELHI_DP NEWDELHI_POCI REUNION_LAT REUNION_LON REUNION_TYPE REUNION_WIND REUNION_PRES REUNION_TNUM REUNION_CI REUNION_RMW REUNION_R34_NE REUNION_R34_SE REUNION_R34_SW REUNION_R34_NW REUNION_R50_NE REUNION_R50_SE REUNION_R50_SW REUNION_R50_NW REUNION_R64_NE REUNION_R64_SE REUNION_R64_SW REUNION_R64_NW BOM_LAT BOM_LON BOM_TYPE BOM_WIND BOM_PRES BOM_TNUM BOM_CI BOM_RMW BOM_R34_NE BOM_R34_SE BOM_R34_SW BOM_R34_NW BOM_R50_NE BOM_R50_SE BOM_R50_SW BOM_R50_NW BOM_R64_NE BOM_R64_SE BOM_R64_SW BOM_R64_NW BOM_ROCI BOM_POCI BOM_EYE BOM_POS_METHOD BOM_PRES_METHOD NADI_LAT NADI_LON NADI_CAT NADI_WIND NADI_PRES WELLINGTON_LAT WELLINGTON_LON WELLINGTON_WIND WELLINGTON_PRES DS824_LAT DS824_LON DS824_STAGE DS824_WIND DS824_PRES TD9636_LAT TD9636_LON TD9636_STAGE TD9636_WIND TD9636_PRES TD9635_LAT TD9635_LON TD9635_WIND TD9635_PRES TD9635_ROCI NEUMANN_LAT NEUMANN_LON NEUMANN_CLASS NEUMANN_WIND NEUMANN_PRES MLC_LAT MLC_LON MLC_CLASS MLC_WIND MLC_PRES USA_GUST BOM_GUST BOM_GUST_PER REUNION_GUST REUNION_GUST_PER USA_SEAHGT USA_SEARAD_NE USA_SEARAD_SE USA_SEARAD_SW USA_SEARAD_NW STORM_SPEED STORM_DIR
1921167N17278 1921 24 NA CS NOT_NAMED 1921-06-16 00:00:00 TS 16.5000 -82.4000 30 hurdat_atl main 171 148 O_____________ hurdat_atl AL011921 16.5000 -82.4000 TD 30 -1 8 270
1921167N17278 1921 24 NA CS NOT_NAMED 1921-06-16 03:00:00 TS 16.5001 -82.7975 main 148 132 P_____________ AL011921 16.5001 -82.7975 TD 30 -1 8 270
1921167N17278 1921 24 NA CS NOT_NAMED 1921-06-16 06:00:00 TS 16.5000 -83.2000 30 hurdat_atl main 132 108 O_____________ hurdat_atl AL011921 16.5000 -83.2000 TD 30 -1 8 270
1921167N17278 1921 24 NA CS NOT_NAMED 1921-06-16 09:00:00 TS 16.5000 -83.6075 main 108 84 P_____________ AL011921 16.5000 -83.6075 TD 30 -1 8 270
1921167N17278 1921 24 NA CS NOT_NAMED 1921-06-16 12:00:00 TS 16.5000 -84.0000 30 hurdat_atl main 84 78 O_____________ hurdat_atl AL011921 16.5000 -84.0000 TD 30 -1 7 270
1921167N17278 1921 24 NA CS NOT_NAMED 1921-06-16 15:00:00 TS 16.4999 -84.3650 main 74 67 P_____________ AL011921 16.4999 -84.3650 TD 30 -1 7 270
1921167N17278 1921 24 NA CS NOT_NAMED 1921-06-16 18:00:00 TS 16.5000 -84.7000 30 hurdat_atl main 67 67 O_____________ hurdat_atl AL011921 16.5000 -84.7000 TD 30 -1 6 269
1921167N17278 1921 24 NA CS NOT_NAMED 1921-06-16 21:00:00 TS 16.4849 -85.0001 main 67 67 P_____________ AL011921 16.4849 -85.0001 TD 32 -1 6 270
1921167N17278 1921 24 NA CS NOT_NAMED 1921-06-17 00:00:00 TS 16.5000 -85.3000 35 hurdat_atl main 67 67 O_____________ hurdat_atl AL011921 16.5000 -85.3000 TS 35 0 6 278
1921167N17278 1921 24 NA CS NOT_NAMED 1921-06-17 03:00:00 TS 16.5700 -85.6425 main 78 78 P_____________ AL011921 16.5700 -85.6425 TS 37 0 7 287
1921167N17278 1921 24 NA CS NOT_NAMED 1921-06-17 06:00:00 TS 16.7000 -86.0000 40 hurdat_atl main 90 90 O_____________ hurdat_atl AL011921 16.7000 -86.0000 TS 40 0 7 295
1921167N17278 1921 24 NA CS NOT_NAMED 1921-06-17 09:00:00 TS 16.8698 -86.3277 main 119 119 P_____________ AL011921 16.8698 -86.3277 TS 42 0 8 301
1921167N17278 1921 24 NA CS NOT_NAMED 1921-06-17 12:00:00 TS 17.1000 -86.7000 45 hurdat_atl main 147 118 O_____________ hurdat_atl AL011921 17.1000 -86.7000 TS 45 0 9 302
1921167N17278 1921 24 NA CS NOT_NAMED 1921-06-17 15:00:00 TS 17.3548 -87.1480 main 116 56 P_____________ AL011921 17.3548 -87.1480 TS 45 0 11 302
1921167N17278 1921 24 NA CS NOT_NAMED 1921-06-17 18:00:00 TS 17.7000 -87.7000 45 hurdat_atl main 56 0 O_____________ hurdat_atl AL011921 17.7000 -87.7000 TS 45 0 14 305
1921167N17278 1921 24 NA NA NOT_NAMED 1921-06-17 21:00:00 TS 18.1775 -88.3624 main 0 0 P_____________ AL011921 18.1775 -88.3624 TS 42 0 17 307
1921167N17278 1921 24 NA NA NOT_NAMED 1921-06-18 00:00:00 TS 18.7000 -89.1000 40 hurdat_atl main 0 0 O_____________ hurdat_atl AL011921 18.7000 -89.1000 TS 40 0 17 305
1921167N17278 1921 24 NA NA NOT_NAMED 1921-06-18 03:00:00 TS 19.1724 -89.8502 main 0 0 P_____________ AL011921 19.1724 -89.8502 TS 37 0 17 302
1921167N17278 1921 24 NA NA NOT_NAMED 1921-06-18 06:00:00 TS 19.6000 -90.6000 35 hurdat_atl main 0 0 O_____________ hurdat_atl AL011921 19.6000 -90.6000 TS 35 0 16 300
1921167N17278 1921 24 NA GM NOT_NAMED 1921-06-18 09:00:00 TS 19.9799 -91.3377 main 71 71 P_____________ AL011921 19.9799 -91.3377 TS 40 0 15 298
1921167N17278 1921 24 NA GM NOT_NAMED 1921-06-18 12:00:00 TS 20.3000 -92.0000 45 hurdat_atl main 151 151 O_____________ hurdat_atl AL011921 20.3000 -92.0000 TS 45 0 13 297
1921167N17278 1921 24 NA GM NOT_NAMED 1921-06-18 15:00:00 TS 20.5723 -92.5677 main 218 218 P_____________ AL011921 20.5723 -92.5677 TS 45 0 11 298
1921167N17278 1921 24 NA GM NOT_NAMED 1921-06-18 18:00:00 TS 20.8000 -93.0000 45 hurdat_atl main 248 248 O_____________ hurdat_atl AL011921 20.8000 -93.0000 TS 45 0 8 302
1921167N17278 1921 24 NA GM NOT_NAMED 1921-06-18 21:00:00 TS 21.0073 -93.3027 main 275 275 P_____________ AL011921 21.0073 -93.3027 TS 47 0 6 311
1921167N17278 1921 24 NA GM NOT_NAMED 1921-06-19 00:00:00 TS 21.2000 -93.5000 50 hurdat_atl main 302 302 O_____________ hurdat_atl AL011921 21.2000 -93.5000 TS 50 0 5 319
1921167N17278 1921 24 NA GM NOT_NAMED 1921-06-19 03:00:00 TS 21.4000 -93.6726 main 327 324 P_____________ AL011921 21.4000 -93.6726 TS 50 0 5 325
1921167N17278 1921 24 NA GM NOT_NAMED 1921-06-19 06:00:00 TS 21.6000 -93.8000 50 hurdat_atl main 330 328 O_____________ hurdat_atl AL011921 21.6000 -93.8000 TS 50 0 5 332
1921167N17278 1921 24 NA GM NOT_NAMED 1921-06-19 09:00:00 TS 21.8000 -93.9076 main 335 334 P_____________ AL011921 21.8000 -93.9076 TS 50 0 4 335
1921167N17278 1921 24 NA GM NOT_NAMED 1921-06-19 12:00:00 TS 22.0000 -94.0000 50 hurdat_atl main 342 334 O_____________ hurdat_atl AL011921 22.0000 -94.0000 TS 50 0 4 337
1921167N17278 1921 24 NA GM NOT_NAMED 1921-06-19 15:00:00 TS 22.2000 -94.0926 main 336 329 P_____________ AL011921 22.2000 -94.0926 TS 52 0 4 335
1921167N17278 1921 24 NA GM NOT_NAMED 1921-06-19 18:00:00 TS 22.4000 -94.2000 55 hurdat_atl main 331 325 O_____________ hurdat_atl AL011921 22.4000 -94.2000 TS 55 0 5 329
1921167N17278 1921 24 NA GM NOT_NAMED 1921-06-19 21:00:00 TS 22.6000 -94.3500 main 328 313 P_____________ AL011921 22.6000 -94.3500 TS 57 0 5 325
1921167N17278 1921 24 NA GM NOT_NAMED 1921-06-20 00:00:00 TS 22.8000 -94.5000 60 hurdat_atl main 317 313 O_____________ hurdat_atl AL011921 22.8000 -94.5000 TS 60 0 5 330
1921167N17278 1921 24 NA GM NOT_NAMED 1921-06-20 03:00:00 TS 22.9925 -94.6001 main 318 315 P_____________ AL011921 22.9925 -94.6001 TS 60 0 4 335
1921167N17278 1921 24 NA GM NOT_NAMED 1921-06-20 06:00:00 TS 23.2000 -94.7000 60 hurdat_atl main 316 305 O_____________ hurdat_atl AL011921 23.2000 -94.7000 TS 60 0 5 333
1921167N17278 1921 24 NA GM NOT_NAMED 1921-06-20 09:00:00 TS 23.4425 -94.8500 main 305 284 P_____________ AL011921 23.4425 -94.8500 TS 62 0 6 331
1921167N17278 1921 24 NA GM NOT_NAMED 1921-06-20 12:00:00 TS 23.7000 -95.0000 65 hurdat_atl main 284 271 O_____________ hurdat_atl AL011921 23.7000 -95.0000 HU 65 1 6 334
1921167N17278 1921 24 NA GM NOT_NAMED 1921-06-20 15:00:00 TS 23.9500 -95.1150 main 271 248 P_____________ AL011921 23.9500 -95.1150 HU 65 1 5 340
1921167N17278 1921 24 NA GM NOT_NAMED 1921-06-20 18:00:00 TS 24.2000 -95.2000 65 hurdat_atl main 248 229 O_____________ hurdat_atl AL011921 24.2000 -95.2000 HU 65 1 5 345
1921167N17278 1921 24 NA GM NOT_NAMED 1921-06-20 21:00:00 TS 24.4575 -95.2576 main 225 215 P_____________ AL011921 24.4575 -95.2576 HU 65 1 5 350
1921167N17278 1921 24 NA GM NOT_NAMED 1921-06-21 00:00:00 TS 24.7000 -95.3000 65 hurdat_atl main 215 206 O_____________ hurdat_atl AL011921 24.7000 -95.3000 HU 65 1 5 349
1921167N17278 1921 24 NA GM NOT_NAMED 1921-06-21 03:00:00 TS 24.9075 -95.3500 main 197 189 P_____________ AL011921 24.9075 -95.3500 HU 65 1 4 348
1921167N17278 1921 24 NA GM NOT_NAMED 1921-06-21 06:00:00 TS 25.1000 -95.4000 65 hurdat_atl main 189 183 O_____________ hurdat_atl AL011921 25.1000 -95.4000 HU 65 1 4 347
1921167N17278 1921 24 NA GM NOT_NAMED 1921-06-21 09:00:00 TS 25.2925 -95.4500 main 173 169 P_____________ AL011921 25.2925 -95.4500 HU 67 1 4 348
1921167N17278 1921 24 NA GM NOT_NAMED 1921-06-21 12:00:00 TS 25.5000 -95.5000 70 hurdat_atl main 169 153 O_____________ hurdat_atl AL011921 25.5000 -95.5000 HU 70 1 5 348
1921167N17278 1921 24 NA GM NOT_NAMED 1921-06-21 15:00:00 TS 25.7425 -95.5575 main 153 149 P_____________ AL011921 25.7425 -95.5575 HU 70 1 5 350
1921167N17278 1921 24 NA GM NOT_NAMED 1921-06-21 18:00:00 TS 26.0000 -95.6000 70 hurdat_atl main 149 149 O_____________ hurdat_atl AL011921 26.0000 -95.6000 HU 70 1 5 355
1921167N17278 1921 24 NA GM NOT_NAMED 1921-06-21 21:00:00 TS 26.2500 -95.6001 main 151 151 P_____________ AL011921 26.2500 -95.6001 HU 72 1 5 2
1921167N17278 1921 24 NA GM NOT_NAMED 1921-06-22 00:00:00 TS 26.5000 -95.6000 75 hurdat_atl main 159 159 O_____________ hurdat_atl AL011921 26.5000 -95.6000 HU 75 1 5 355
1921167N17278 1921 24 NA GM NOT_NAMED 1921-06-22 03:00:00 TS 26.7425 -95.6425 main 168 165 P_____________ AL011921 26.7425 -95.6425 HU 77 1 5 350
1921167N17278 1921 24 NA GM NOT_NAMED 1921-06-22 06:00:00 TS 27.0000 -95.7000 80 hurdat_atl main 167 140 O_____________ hurdat_atl AL011921 27.0000 -95.7000 HU 80 1 5 349
1921167N17278 1921 24 NA GM NOT_NAMED 1921-06-22 09:00:00 TS 27.2700 -95.7501 main 136 106 P_____________ AL011921 27.2700 -95.7501 HU 80 1 6 352
1921167N17278 1921 24 NA GM NOT_NAMED 1921-06-22 12:00:00 TS 27.6000 -95.8000 80 hurdat_atl main 106 68 O_____________ hurdat_atl AL011921 27.6000 -95.8000 HU 80 1 8 353
1921167N17278 1921 24 NA GM NOT_NAMED 1921-06-22 15:00:00 TS 28.0125 -95.8500 main 63 14 P_____________ AL011921 28.0125 -95.8500 HU 80 1 9 355
1921167N17278 1921 24 NA GM NOT_NAMED 1921-06-22 18:00:00 TS 28.5000 -95.9000 80 980 hurdat_atl main 14 0 O_____________ hurdat_atl AL011921 28.5000 -95.9000 L HU 80 980 1 10 355
1921167N17278 1921 24 NA NA NOT_NAMED 1921-06-22 21:00:00 TS 29.0200 -95.9501 main 0 0 P_____________ AL011921 29.0200 -95.9501 HU 65 1 11 355
1921167N17278 1921 24 NA NA NOT_NAMED 1921-06-23 00:00:00 TS 29.6000 -96.0000 50 hurdat_atl main 0 0 O_____________ hurdat_atl AL011921 29.6000 -96.0000 TS 50 0 12 356
1921167N17278 1921 24 NA NA NOT_NAMED 1921-06-23 03:00:00 TS 30.2425 -96.0500 main 0 0 P_____________ AL011921 30.2425 -96.0500 TS 45 0 13 356
1921167N17278 1921 24 NA NA NOT_NAMED 1921-06-23 06:00:00 TS 30.9000 -96.1000 40 hurdat_atl main 0 0 O_____________ hurdat_atl AL011921 30.9000 -96.1000 TS 40 0 13 356
1921167N17278 1921 24 NA NA NOT_NAMED 1921-06-23 09:00:00 TS 31.5150 -96.1648 main 0 0 P_____________ AL011921 31.5150 -96.1648 TS 35 0 12 356
1921167N17278 1921 24 NA NA NOT_NAMED 1921-06-23 12:00:00 TS 32.1000 -96.2000 30 hurdat_atl main 0 0 O_____________ hurdat_atl AL011921 32.1000 -96.2000 TD 30 -1 11 359
1921167N17278 1921 24 NA NA NOT_NAMED 1921-06-23 15:00:00 TS 32.6574 -96.1873 main 0 0 P_____________ AL011921 32.6574 -96.1873 TD 30 -1 11 5
1921167N17278 1921 24 NA NA NOT_NAMED 1921-06-23 18:00:00 TS 33.2000 -96.1000 30 hurdat_atl main 0 0 O_____________ hurdat_atl AL011921 33.2000 -96.1000 TD 30 -1 11 11
1921167N17278 1921 24 NA NA NOT_NAMED 1921-06-23 21:00:00 TS 33.7575 -95.9227 main 0 0 P_____________ AL011921 33.7575 -95.9227 TD 30 -1 12 17
1921167N17278 1921 24 NA NA NOT_NAMED 1921-06-24 00:00:00 TS 34.3000 -95.7000 30 hurdat_atl main 0 0 O_____________ hurdat_atl AL011921 34.3000 -95.7000 TD 30 -1 11 19
1921167N17278 1921 24 NA NA NOT_NAMED 1921-06-24 03:00:00 TS 34.8075 -95.4923 main 0 0 P_____________ AL011921 34.8075 -95.4923 TD 30 -1 11 18
1921167N17278 1921 24 NA NA NOT_NAMED 1921-06-24 06:00:00 TS 35.3000 -95.3000 30 hurdat_atl main 0 0 O_____________ hurdat_atl AL011921 35.3000 -95.3000 TD 30 -1 11 16
1921167N17278 1921 24 NA NA NOT_NAMED 1921-06-24 09:00:00 TS 35.8300 -95.1276 main 0 0 P_____________ AL011921 35.8300 -95.1276 TD 30 -1 10 14
1921167N17278 1921 24 NA NA NOT_NAMED 1921-06-24 12:00:00 TS 36.3000 -95.0000 30 hurdat_atl main 0 0 O_____________ hurdat_atl AL011921 36.3000 -95.0000 TD 30 -1 8 11
1921167N17278 1921 24 NA NA NOT_NAMED 1921-06-24 15:00:00 TS 36.6450 -94.9347 main 0 0 P_____________ AL011921 36.6450 -94.9347 TD 30 -1 6 8
1921167N17278 1921 24 NA NA NOT_NAMED 1921-06-24 18:00:00 TS 36.9000 -94.9000 30 hurdat_atl main 0 0 O_____________ hurdat_atl AL011921 36.9000 -94.9000 TD 30 -1 5 9
1921167N17278 1921 24 NA NA NOT_NAMED 1921-06-24 21:00:00 TS 37.1225 -94.8425 main 0 0 P_____________ AL011921 37.1225 -94.8425 TD 30 -1 4 11
1921167N17278 1921 24 NA NA NOT_NAMED 1921-06-25 00:00:00 TS 37.3000 -94.8000 30 hurdat_atl main 0 0 O_____________ hurdat_atl AL011921 37.3000 -94.8000 TD 30 -1 3 8
1921167N17278 1921 24 NA NA NOT_NAMED 1921-06-25 03:00:00 TS 37.4575 -94.7924 main 0 0 P_____________ AL011921 37.4575 -94.7924 TD 30 -1 3 0
1921167N17278 1921 24 NA NA NOT_NAMED 1921-06-25 06:00:00 TS 37.6000 -94.8000 30 hurdat_atl main 0 0 O_____________ hurdat_atl AL011921 37.6000 -94.8000 TD 30 -1 3 357
1921167N17278 1921 24 NA NA NOT_NAMED 1921-06-25 09:00:00 TS 37.7425 -94.8000 main 0 0 P_____________ AL011921 37.7425 -94.8000 TD 27 -1 3 0
1921167N17278 1921 24 NA NA NOT_NAMED 1921-06-25 12:00:00 TS 37.9000 -94.8000 25 hurdat_atl main 0 0 O_____________ hurdat_atl AL011921 37.9000 -94.8000 TD 25 -1 3 2
1921167N17278 1921 24 NA NA NOT_NAMED 1921-06-25 15:00:00 TS 38.0850 -94.7926 main 0 0 P_____________ AL011921 38.0850 -94.7926 TD 22 -1 4 0
1921167N17278 1921 24 NA NA NOT_NAMED 1921-06-25 18:00:00 TS 38.3000 -94.8000 20 hurdat_atl main 0 0 O_____________ hurdat_atl AL011921 38.3000 -94.8000 TD 20 -1 5 356
1921167N17278 1921 24 NA NA NOT_NAMED 1921-06-25 21:00:00 TS 38.5350 -94.8425 main 0 0 P_____________ AL011921 38.5350 -94.8425 TD 20 -1 5 351
1921167N17278 1921 24 NA NA NOT_NAMED 1921-06-26 00:00:00 TS 38.8000 -94.9000 20 hurdat_atl main 0 0 O_____________ hurdat_atl AL011921 38.8000 -94.9000 TD 20 -1 6 351
1921167N17278 1921 24 NA NA NOT_NAMED 1921-06-26 03:00:00 TS 39.0925 -94.9426 main 0 0 P_____________ AL011921 39.0925 -94.9426 TD 17 -1 6 352
1921167N17278 1921 24 NA NA NOT_NAMED 1921-06-26 06:00:00 TS 39.4000 -95.0000 15 hurdat_atl main 0 0 O_____________ hurdat_atl AL011921 39.4000 -95.0000 TD 15 -1 6 349
1921167N17278 1921 24 NA NA NOT_NAMED 1921-06-26 09:00:00 TS 39.7025 -95.0898 main 0 0 P_____________ AL011921 39.7025 -95.0898 TD 15 -1 6 346
1921167N17278 1921 24 NA NA NOT_NAMED 1921-06-26 12:00:00 TS 40.0000 -95.2000 15 hurdat_atl main 0 O_____________ hurdat_atl AL011921 40.0000 -95.2000 TD 15 -1 6 343

IBTrACS Databaseについて

本データベースは、米国NOAAが公開する1842年以降の世界の熱帯低気圧のベストトラックデータアーカイブInternational Best Track Archive for Climate Stewardship (IBTrACS)を、ウェブで閲覧しやすい形式に変換したものです。

最終更新日:2021-11-26